Airport View

Enter AWOS ICAO identifier for current METAR.

ex. KFNL

KTUS 051253Z 15007KT 10SM CLR 27/11 A2998 RMK AO2 SLP097 T02720111

5 Aug 2020 13:27

Phone: 520-295-5727

Other Area AWOS: KDMA - KRYN - KAVQ - KOLS

TAF KTUS 051120Z 0512/0612 15007KT P6SM SCT140 FM051800 30008KT P6SM FEW140 FM052100 24009KT P6SM SCT140 SCT200 FM060300 20009KT P6SM FEW140